Time;durP1;ratioP1;P1;durP2;ratioP2;P2;SDS_P1;SDS_P2;PMS_P1;PMS_P2;Temp;Humidity;BMP_temperature;BMP_pressure;BME280_temperature;BME280_humidity;BME280_pressure;Samples;Min_cycle;Max_cycle;Signal;HPM_P1;HPM_P2
2021/12/03 00:00:14;;;;;;;14.33;12.83;;;;;;;;;;5120723;27;20232;-71
2021/12/03 00:02:42;;;;;;;16.20;13.33;;;;;;;;;;5120101;27;20400;-71
2021/12/03 00:05:10;;;;;;;17.17;12.33;;;;;;;;;;5122402;27;21171;-72
2021/12/03 00:07:39;;;;;;;17.10;13.23;;;;;;;;;;5119264;27;20705;-71
2021/12/03 00:10:07;;;;;;;16.70;12.70;;;;;;;;;;5118098;27;20599;-71
2021/12/03 00:12:34;;;;;;;15.17;13.10;;;;;;;;;;5118798;27;20207;-72
2021/12/03 00:15:01;;;;;;;14.13;12.63;;;;;;;;;;5119288;27;20240;-72
2021/12/03 00:17:27;;;;;;;16.17;13.00;;;;;;;;;;5122181;27;20231;-71
2021/12/03 00:19:55;;;;;;;15.43;13.83;;;;;;;;;;5120045;27;20639;-71
2021/12/03 00:22:21;;;;;;;12.73;11.17;;;;;;;;;;5118780;27;20200;-71
2021/12/03 00:24:48;;;;;;;14.83;12.27;;;;;;;;;;5118814;27;20844;-72
2021/12/03 00:27:14;;;;;;;16.23;14.53;;;;;;;;;;5122766;27;20210;-71
2021/12/03 00:29:41;;;;;;;16.00;13.20;;;;;;;;;;5120966;27;20790;-71
2021/12/03 00:32:08;;;;;;;16.27;13.03;;;;;;;;;;5120547;27;20304;-72
2021/12/03 00:34:34;;;;;;;14.07;12.53;;;;;;;;;;5120643;27;20259;-71
2021/12/03 00:37:02;;;;;;;17.53;14.00;;;;;;;;;;5122486;27;20212;-71
2021/12/03 00:42:58;;;;;;;18.70;15.80;;;;;;;;;;5079371;28;20315;-72
2021/12/03 00:45:24;;;;;;;18.63;14.10;;;;;;;;;;5079874;28;20835;-73
2021/12/03 00:47:51;;;;;;;15.17;13.57;;;;;;;;;;5082485;28;20694;-71
2021/12/03 00:50:21;;;;;;;18.97;15.30;;;;;;;;;;5082153;28;20220;-71
2021/12/03 00:52:49;;;;;;;17.23;15.33;;;;;;;;;;5083434;28;20589;-72
2021/12/03 00:55:16;;;;;;;19.47;17.07;;;;;;;;;;5084409;28;20245;-72
2021/12/03 00:57:43;;;;;;;22.20;17.73;;;;;;;;;;5084629;28;20279;-71
2021/12/03 01:00:13;;;;;;;17.93;16.07;;;;;;;;;;5083841;28;20207;-72
2021/12/03 01:02:39;;;;;;;17.73;15.83;;;;;;;;;;5084303;28;20233;-71
2021/12/03 01:05:07;;;;;;;24.07;16.50;;;;;;;;;;5083550;28;20287;-71
2021/12/03 01:07:34;;;;;;;19.07;17.13;;;;;;;;;;5080996;28;20207;-71
2021/12/03 01:10:01;;;;;;;19.63;16.87;;;;;;;;;;5083360;28;20604;-72
2021/12/03 01:12:28;;;;;;;20.73;18.63;;;;;;;;;;5084382;28;20214;-71
2021/12/03 01:14:54;;;;;;;20.80;17.17;;;;;;;;;;5083258;28;21095;-71
2021/12/03 01:17:22;;;;;;;20.17;18.00;;;;;;;;;;5084949;28;20224;-71
2021/12/03 01:19:48;;;;;;;22.93;19.87;;;;;;;;;;5083066;28;20224;-71
2021/12/03 01:22:15;;;;;;;19.20;17.17;;;;;;;;;;5083574;28;20256;-71
2021/12/03 01:24:41;;;;;;;18.77;16.87;;;;;;;;;;5083317;28;21032;-71
2021/12/03 01:27:09;;;;;;;20.67;16.83;;;;;;;;;;5084658;28;20274;-72
2021/12/03 01:29:36;;;;;;;19.03;15.93;;;;;;;;;;5083356;28;20207;-72
2021/12/03 01:32:02;;;;;;;17.70;15.87;;;;;;;;;;5081913;28;20270;-72
2021/12/03 01:34:29;;;;;;;18.67;16.63;;;;;;;;;;5082532;28;20226;-73
2021/12/03 01:36:55;;;;;;;19.60;16.03;;;;;;;;;;5082382;28;20646;-72
2021/12/03 01:39:22;;;;;;;17.30;15.37;;;;;;;;;;5083937;28;20266;-72
2021/12/03 01:41:48;;;;;;;19.33;16.53;;;;;;;;;;5108072;27;20235;-72
2021/12/03 01:44:16;;;;;;;16.63;14.93;;;;;;;;;;5123826;27;20216;-72
2021/12/03 01:46:43;;;;;;;18.10;15.90;;;;;;;;;;5124366;27;20581;-72
2021/12/03 01:49:12;;;;;;;17.50;14.70;;;;;;;;;;5125173;27;20289;-72
2021/12/03 01:51:38;;;;;;;17.47;15.67;;;;;;;;;;5119380;27;20208;-72
2021/12/03 01:54:05;;;;;;;16.83;15.13;;;;;;;;;;5124113;27;20277;-72
2021/12/03 01:56:31;;;;;;;17.67;14.63;;;;;;;;;;5123650;27;20223;-72
2021/12/03 01:58:58;;;;;;;14.37;13.07;;;;;;;;;;5124069;27;20207;-72
2021/12/03 02:01:28;;;;;;;15.87;14.27;;;;;;;;;;5124574;27;20293;-72
2021/12/03 02:03:57;;;;;;;17.43;15.17;;;;;;;;;;5123509;27;20206;-72
2021/12/03 02:06:25;;;;;;;16.97;15.47;;;;;;;;;;5125041;27;20227;-71
2021/12/03 02:08:52;;;;;;;18.60;15.90;;;;;;;;;;5122920;27;20230;-71
2021/12/03 02:11:18;;;;;;;16.73;15.03;;;;;;;;;;5123116;27;20250;-71
2021/12/03 02:13:45;;;;;;;19.53;17.63;;;;;;;;;;5122611;27;20263;-71
2021/12/03 02:16:13;;;;;;;19.77;16.10;;;;;;;;;;5124532;27;20344;-71
2021/12/03 02:18:40;;;;;;;18.40;16.57;;;;;;;;;;5122484;27;20207;-71
2021/12/03 02:21:09;;;;;;;17.10;15.30;;;;;;;;;;5123100;27;20214;-71
2021/12/03 02:23:37;;;;;;;18.03;16.23;;;;;;;;;;5121715;27;20208;-71
2021/12/03 02:26:04;;;;;;;18.87;16.87;;;;;;;;;;5125083;27;20236;-71
2021/12/03 02:28:36;;;;;;;19.07;17.03;;;;;;;;;;5124036;27;20830;-72
2021/12/03 02:31:04;;;;;;;22.67;18.43;;;;;;;;;;5122790;27;20228;-72
2021/12/03 02:33:30;;;;;;;18.50;16.67;;;;;;;;;;5122396;27;20686;-73
2021/12/03 02:35:57;;;;;;;19.77;16.83;;;;;;;;;;5122483;27;20525;-73
2021/12/03 02:38:26;;;;;;;17.40;15.57;;;;;;;;;;5121365;27;20207;-73
2021/12/03 02:40:53;;;;;;;20.33;18.20;;;;;;;;;;5123820;27;20809;-73
2021/12/03 02:43:20;;;;;;;17.80;16.10;;;;;;;;;;5125375;27;20212;-73
2021/12/03 02:45:47;;;;;;;17.13;14.87;;;;;;;;;;5122329;27;20238;-71
2021/12/03 02:48:14;;;;;;;18.73;16.97;;;;;;;;;;5119960;27;20224;-73
2021/12/03 02:50:41;;;;;;;20.27;16.70;;;;;;;;;;5122345;27;20210;-72
2021/12/03 02:53:07;;;;;;;17.67;15.87;;;;;;;;;;5124047;27;20665;-72
2021/12/03 02:55:35;;;;;;;24.50;18.77;;;;;;;;;;5121292;27;20281;-72
2021/12/03 02:58:03;;;;;;;21.37;17.93;;;;;;;;;;5122163;27;20247;-73
2021/12/03 03:00:30;;;;;;;18.87;16.97;;;;;;;;;;5121723;27;20208;-72
2021/12/03 03:02:57;;;;;;;20.43;17.33;;;;;;;;;;5120788;27;20203;-73
2021/12/03 03:05:26;;;;;;;18.87;16.83;;;;;;;;;;5122800;27;20282;-72
2021/12/03 03:07:53;;;;;;;17.83;15.43;;;;;;;;;;5124997;27;20199;-73
2021/12/03 03:10:24;;;;;;;17.47;15.10;;;;;;;;;;5119640;27;20251;-72
2021/12/03 03:12:52;;;;;;;14.77;12.70;;;;;;;;;;5122517;27;20204;-72
2021/12/03 03:15:19;;;;;;;16.93;15.23;;;;;;;;;;5121721;27;20230;-72
2021/12/03 03:17:46;;;;;;;16.90;15.10;;;;;;;;;;5121477;27;20744;-73
2021/12/03 03:20:13;;;;;;;18.87;16.33;;;;;;;;;;5122097;27;20215;-72
2021/12/03 03:22:41;;;;;;;17.40;15.60;;;;;;;;;;5123189;27;20212;-73
2021/12/03 03:25:10;;;;;;;14.80;13.27;;;;;;;;;;5121795;27;20764;-72
2021/12/03 03:27:37;;;;;;;15.40;13.83;;;;;;;;;;5121489;27;20275;-72
2021/12/03 03:30:06;;;;;;;15.07;13.50;;;;;;;;;;5121175;27;20265;-72
2021/12/03 03:32:33;;;;;;;15.40;13.83;;;;;;;;;;5121311;27;20732;-73
2021/12/03 03:34:59;;;;;;;19.10;15.10;;;;;;;;;;5123165;27;20268;-73
2021/12/03 03:37:25;;;;;;;16.87;14.33;;;;;;;;;;5120365;27;20216;-73
2021/12/03 03:39:52;;;;;;;15.10;13.57;;;;;;;;;;5124548;27;20227;-73
2021/12/03 03:42:19;;;;;;;14.03;12.63;;;;;;;;;;5120217;27;20709;-72
2021/12/03 03:44:45;;;;;;;13.50;12.10;;;;;;;;;;5121473;27;20929;-72
2021/12/03 03:47:13;;;;;;;14.53;13.03;;;;;;;;;;5122529;27;20295;-72
2021/12/03 03:49:40;;;;;;;13.23;11.83;;;;;;;;;;5121301;27;20315;-72
2021/12/03 03:52:07;;;;;;;14.97;13.00;;;;;;;;;;5119014;27;20203;-73
2021/12/03 03:54:33;;;;;;;15.23;12.57;;;;;;;;;;5119426;27;20275;-73
2021/12/03 03:57:00;;;;;;;12.63;11.30;;;;;;;;;;5121852;27;20281;-73
2021/12/03 03:59:27;;;;;;;14.57;13.07;;;;;;;;;;5121530;27;20215;-73
2021/12/03 04:01:54;;;;;;;14.07;11.57;;;;;;;;;;5122885;27;20224;-72
2021/12/03 04:04:22;;;;;;;16.43;12.40;;;;;;;;;;5117254;27;21026;-73
2021/12/03 04:06:51;;;;;;;13.17;11.03;;;;;;;;;;5119124;27;20321;-72
2021/12/03 04:09:18;;;;;;;14.07;12.07;;;;;;;;;;5122078;27;20238;-72
2021/12/03 04:11:44;;;;;;;12.40;11.10;;;;;;;;;;5121509;27;20684;-72
2021/12/03 04:14:11;;;;;;;13.63;10.20;;;;;;;;;;5120688;27;20285;-72
2021/12/03 04:16:37;;;;;;;12.77;11.07;;;;;;;;;;5119152;27;20219;-72
2021/12/03 04:19:04;;;;;;;11.20;10.03;;;;;;;;;;5118199;27;20215;-73
2021/12/03 04:21:31;;;;;;;14.17;9.93;;;;;;;;;;5121402;27;21027;-72
2021/12/03 04:23:58;;;;;;;13.10;10.63;;;;;;;;;;5124703;27;20204;-72
2021/12/03 04:26:24;;;;;;;12.23;9.80;;;;;;;;;;5124426;27;20690;-72
2021/12/03 04:28:51;;;;;;;14.43;9.87;;;;;;;;;;5126368;27;20220;-72
2021/12/03 04:31:17;;;;;;;11.87;9.73;;;;;;;;;;5127126;27;20706;-72
2021/12/03 04:33:43;;;;;;;11.17;8.50;;;;;;;;;;5125074;27;20252;-72
2021/12/03 04:36:10;;;;;;;10.10;8.77;;;;;;;;;;5128080;27;20943;-72
2021/12/03 04:38:38;;;;;;;11.37;8.13;;;;;;;;;;5124742;27;20233;-72
2021/12/03 04:41:04;;;;;;;9.77;7.60;;;;;;;;;;5123187;27;20774;-72
2021/12/03 04:43:32;;;;;;;8.70;7.13;;;;;;;;;;5126554;27;20226;-72
2021/12/03 04:45:58;;;;;;;8.80;6.40;;;;;;;;;;5122734;27;20230;-72
2021/12/03 04:48:24;;;;;;;9.07;7.37;;;;;;;;;;5122313;27;20478;-72
2021/12/03 04:50:51;;;;;;;11.03;7.13;;;;;;;;;;5125838;27;20813;-72
2021/12/03 04:53:19;;;;;;;9.47;5.23;;;;;;;;;;5125049;27;20638;-72
2021/12/03 04:55:48;;;;;;;10.40;5.87;;;;;;;;;;5126096;27;20230;-72
2021/12/03 04:58:15;;;;;;;5.87;5.00;;;;;;;;;;5124607;27;20684;-72
2021/12/03 05:00:44;;;;;;;7.33;5.87;;;;;;;;;;5124801;27;20291;-72
2021/12/03 05:03:10;;;;;;;12.50;6.10;;;;;;;;;;5126899;27;20480;-72
2021/12/03 05:05:38;;;;;;;7.77;5.30;;;;;;;;;;5124652;27;20237;-72
2021/12/03 05:08:08;;;;;;;8.13;5.70;;;;;;;;;;5125809;27;20238;-72
2021/12/03 05:10:37;;;;;;;6.30;3.00;;;;;;;;;;5125112;27;20717;-72
2021/12/03 05:13:07;;;;;;;6.23;4.83;;;;;;;;;;5124860;27;20303;-72
2021/12/03 05:15:35;;;;;;;9.10;4.63;;;;;;;;;;5124338;27;20208;-72
2021/12/03 05:18:02;;;;;;;8.53;4.17;;;;;;;;;;5121378;27;20264;-71
2021/12/03 05:20:29;;;;;;;5.87;4.57;;;;;;;;;;5123881;27;20737;-72
2021/12/03 05:22:57;;;;;;;6.43;4.53;;;;;;;;;;5125314;27;20252;-71
2021/12/03 05:25:23;;;;;;;8.17;4.60;;;;;;;;;;5121264;27;20750;-70
2021/12/03 05:27:50;;;;;;;7.00;4.10;;;;;;;;;;5125121;27;20227;-70
2021/12/03 05:30:18;;;;;;;7.70;4.90;;;;;;;;;;5123175;27;20200;-75
2021/12/03 05:32:45;;;;;;;6.60;4.70;;;;;;;;;;5122946;27;20233;-75
2021/12/03 05:35:12;;;;;;;6.77;3.93;;;;;;;;;;5123742;27;20667;-72
2021/12/03 05:37:38;;;;;;;7.10;4.50;;;;;;;;;;5124885;27;20258;-71
2021/12/03 05:40:08;;;;;;;9.93;5.00;;;;;;;;;;5122442;27;20254;-71
2021/12/03 05:42:36;;;;;;;7.03;4.70;;;;;;;;;;5121337;27;20239;-70
2021/12/03 05:45:03;;;;;;;5.03;3.93;;;;;;;;;;5123360;27;20215;-70
2021/12/03 05:47:31;;;;;;;10.27;5.10;;;;;;;;;;5122108;27;20253;-70
2021/12/03 05:49:57;;;;;;;7.13;4.33;;;;;;;;;;5123798;27;20819;-71
2021/12/03 05:52:24;;;;;;;8.07;4.27;;;;;;;;;;5125082;27;20226;-71
2021/12/03 05:54:50;;;;;;;6.63;4.60;;;;;;;;;;5123197;27;20220;-71
2021/12/03 05:57:17;;;;;;;7.20;4.13;;;;;;;;;;5121478;27;20205;-72
2021/12/03 05:59:43;;;;;;;6.13;4.83;;;;;;;;;;5122265;27;20211;-71
2021/12/03 06:02:10;;;;;;;7.13;3.77;;;;;;;;;;5125717;27;20224;-72
2021/12/03 06:04:38;;;;;;;4.50;3.27;;;;;;;;;;5121070;27;20259;-72
2021/12/03 06:07:05;;;;;;;4.07;2.10;;;;;;;;;;5122207;27;20230;-72
2021/12/03 06:09:31;;;;;;;4.00;1.80;;;;;;;;;;5123388;27;20685;-72
2021/12/03 06:11:59;;;;;;;4.27;2.70;;;;;;;;;;5122854;27;20215;-73
2021/12/03 06:14:27;;;;;;;2.47;1.93;;;;;;;;;;5122023;27;20259;-73
2021/12/03 06:16:53;;;;;;;5.83;2.13;;;;;;;;;;5122622;27;20282;-73
2021/12/03 06:19:20;;;;;;;3.10;2.00;;;;;;;;;;5122977;27;20204;-74
2021/12/03 06:21:47;;;;;;;2.57;1.97;;;;;;;;;;5122587;27;20216;-73
2021/12/03 06:24:14;;;;;;;6.57;2.90;;;;;;;;;;5124321;27;20216;-74
2021/12/03 06:26:40;;;;;;;6.37;3.77;;;;;;;;;;5123702;27;20692;-73
2021/12/03 06:29:07;;;;;;;5.40;3.33;;;;;;;;;;5122288;27;20208;-75
2021/12/03 06:31:34;;;;;;;4.80;2.77;;;;;;;;;;5122491;27;20673;-74
2021/12/03 06:34:00;;;;;;;5.67;3.73;;;;;;;;;;5124219;27;20327;-74
2021/12/03 06:36:27;;;;;;;6.17;3.43;;;;;;;;;;5122212;27;20213;-74
2021/12/03 06:38:56;;;;;;;8.53;4.43;;;;;;;;;;5123127;27;20223;-74
2021/12/03 06:41:22;;;;;;;7.63;3.70;;;;;;;;;;5121462;27;20243;-74
2021/12/03 06:43:51;;;;;;;4.73;3.57;;;;;;;;;;5123913;27;20274;-74
2021/12/03 06:46:18;;;;;;;5.47;3.57;;;;;;;;;;5121920;27;20228;-74
2021/12/03 06:48:44;;;;;;;7.77;4.40;;;;;;;;;;5121638;27;20228;-74
2021/12/03 06:51:11;;;;;;;8.60;4.23;;;;;;;;;;5120868;27;20215;-74
2021/12/03 06:53:42;;;;;;;9.70;4.37;;;;;;;;;;5119072;27;20208;-74
2021/12/03 06:56:19;;;;;;;8.57;5.53;;;;;;;;;;5121930;27;20231;-74
2021/12/03 06:58:46;;;;;;;9.97;5.27;;;;;;;;;;5122643;27;20203;-74
2021/12/03 07:01:12;;;;;;;8.00;4.70;;;;;;;;;;5119154;27;20221;-74
2021/12/03 07:03:39;;;;;;;8.93;6.97;;;;;;;;;;5119805;27;20210;-74
2021/12/03 07:06:05;;;;;;;9.90;7.40;;;;;;;;;;5121921;27;20490;-75
2021/12/03 07:08:32;;;;;;;10.00;6.50;;;;;;;;;;5122413;27;20203;-74
2021/12/03 07:10:58;;;;;;;11.57;6.33;;;;;;;;;;5119085;27;20235;-74
2021/12/03 07:13:30;;;;;;;14.07;7.87;;;;;;;;;;5120148;27;20987;-74
2021/12/03 07:15:57;;;;;;;12.63;8.10;;;;;;;;;;5121605;27;20318;-74
2021/12/03 07:18:23;;;;;;;16.20;10.77;;;;;;;;;;5120503;27;20271;-75
2021/12/03 07:20:49;;;;;;;21.33;11.60;;;;;;;;;;5121322;27;20208;-75
2021/12/03 07:23:16;;;;;;;13.63;10.30;;;;;;;;;;5117957;27;20204;-75
2021/12/03 07:25:42;;;;;;;15.30;9.87;;;;;;;;;;5117332;27;20362;-74
2021/12/03 07:28:09;;;;;;;16.03;11.03;;;;;;;;;;5119093;27;20233;-74
2021/12/03 07:30:37;;;;;;;20.13;11.93;;;;;;;;;;5117767;27;20203;-74
2021/12/03 07:33:07;;;;;;;19.77;10.67;;;;;;;;;;5119171;27;20212;-74
2021/12/03 07:35:33;;;;;;;19.97;12.47;;;;;;;;;;5117036;27;20669;-74
2021/12/03 07:38:00;;;;;;;14.73;10.53;;;;;;;;;;5117303;27;20214;-74
2021/12/03 07:40:33;;;;;;;13.53;10.53;;;;;;;;;;5118237;27;20314;-74
2021/12/03 07:43:00;;;;;;;14.60;10.20;;;;;;;;;;5122739;27;20192;-75
2021/12/03 07:45:26;;;;;;;18.33;11.73;;;;;;;;;;5118757;27;20292;-73
2021/12/03 07:47:54;;;;;;;15.40;10.20;;;;;;;;;;5118306;27;20288;-74
2021/12/03 07:50:21;;;;;;;14.87;10.57;;;;;;;;;;5117934;27;20211;-74
2021/12/03 07:52:48;;;;;;;13.70;10.97;;;;;;;;;;5120582;27;20247;-74
2021/12/03 07:55:14;;;;;;;17.83;10.97;;;;;;;;;;5116264;27;20700;-74
2021/12/03 07:57:41;;;;;;;18.63;12.70;;;;;;;;;;5119756;27;20203;-74
2021/12/03 08:00:09;;;;;;;13.57;8.27;;;;;;;;;;5119168;27;20256;-73
2021/12/03 08:02:35;;;;;;;14.80;9.00;;;;;;;;;;5119094;27;20273;-73
2021/12/03 08:05:03;;;;;;;18.10;11.07;;;;;;;;;;5119024;27;20211;-73
2021/12/03 08:07:30;;;;;;;19.93;10.40;;;;;;;;;;5118323;27;20246;-73
2021/12/03 08:09:57;;;;;;;13.50;8.30;;;;;;;;;;5115185;27;20259;-74
2021/12/03 08:12:23;;;;;;;15.83;10.73;;;;;;;;;;5117649;27;20201;-73
2021/12/03 08:14:49;;;;;;;17.70;9.63;;;;;;;;;;5117697;27;20211;-73
2021/12/03 08:17:16;;;;;;;16.30;9.60;;;;;;;;;;5119878;27;20218;-74
2021/12/03 08:19:42;;;;;;;15.43;8.70;;;;;;;;;;5115977;27;20208;-74
2021/12/03 08:22:10;;;;;;;18.53;9.67;;;;;;;;;;5116221;27;20635;-74
2021/12/03 08:24:36;;;;;;;17.30;10.00;;;;;;;;;;5118973;27;20272;-74
2021/12/03 08:27:03;;;;;;;14.37;8.83;;;;;;;;;;5118653;27;20695;-75
2021/12/03 08:29:29;;;;;;;13.37;6.37;;;;;;;;;;5115877;27;20581;-74
2021/12/03 08:31:56;;;;;;;11.93;7.67;;;;;;;;;;5119315;27;20227;-74
2021/12/03 08:34:22;;;;;;;11.57;6.60;;;;;;;;;;5118391;27;20261;-74
2021/12/03 08:36:48;;;;;;;13.70;8.00;;;;;;;;;;5120144;27;20277;-74
2021/12/03 08:39:16;;;;;;;17.90;8.00;;;;;;;;;;5119126;27;20208;-74
2021/12/03 08:41:43;;;;;;;13.43;7.33;;;;;;;;;;5116643;27;20289;-74
2021/12/03 08:44:09;;;;;;;14.67;6.50;;;;;;;;;;5122726;27;20203;-74
2021/12/03 08:46:37;;;;;;;13.33;6.23;;;;;;;;;;5117984;27;20273;-73
2021/12/03 08:49:12;;;;;;;10.50;6.30;;;;;;;;;;5117553;27;20240;-74
2021/12/03 08:52:12;;;;;;;13.90;5.90;;;;;;;;;;5118688;27;20211;-74
2021/12/03 08:54:49;;;;;;;13.63;6.20;;;;;;;;;;5118102;27;20331;-73
2021/12/03 08:57:17;;;;;;;12.40;4.70;;;;;;;;;;5117795;27;20296;-74
2021/12/03 08:59:44;;;;;;;9.03;5.37;;;;;;;;;;5117393;27;20209;-75
2021/12/03 09:02:10;;;;;;;15.17;5.53;;;;;;;;;;5119232;27;20235;-74
2021/12/03 09:04:37;;;;;;;13.63;5.37;;;;;;;;;;5116463;27;20261;-75
2021/12/03 09:07:05;;;;;;;17.23;4.97;;;;;;;;;;5118345;27;20234;-75
2021/12/03 09:09:32;;;;;;;9.17;5.00;;;;;;;;;;5121480;27;20213;-74
2021/12/03 09:12:00;;;;;;;9.23;4.80;;;;;;;;;;5121619;27;20213;-73
2021/12/03 09:14:28;;;;;;;12.67;4.53;;;;;;;;;;5122969;27;20215;-73
2021/12/03 09:17:00;;;;;;;8.37;4.13;;;;;;;;;;5122763;27;20250;-74
2021/12/03 09:19:31;;;;;;;6.73;4.37;;;;;;;;;;5120918;27;20615;-73
2021/12/03 09:21:58;;;;;;;9.27;4.97;;;;;;;;;;5122061;27;20268;-73
2021/12/03 09:24:30;;;;;;;10.73;5.07;;;;;;;;;;5122346;27;20216;-73
2021/12/03 09:26:57;;;;;;;5.23;3.83;;;;;;;;;;5121375;27;20664;-73
2021/12/03 09:29:29;;;;;;;14.83;5.63;;;;;;;;;;5123362;27;20215;-73
2021/12/03 09:31:56;;;;;;;10.00;5.13;;;;;;;;;;5122555;27;20226;-73
2021/12/03 09:34:24;;;;;;;11.70;5.20;;;;;;;;;;5122570;27;20215;-73
2021/12/03 09:36:50;;;;;;;10.87;4.97;;;;;;;;;;5122212;27;20218;-73
2021/12/03 09:39:19;;;;;;;6.40;4.03;;;;;;;;;;5121357;27;20628;-73
2021/12/03 09:41:45;;;;;;;11.17;4.20;;;;;;;;;;5119096;27;20236;-73
2021/12/03 09:44:12;;;;;;;6.87;4.80;;;;;;;;;;5121819;27;20325;-74
2021/12/03 09:46:40;;;;;;;9.90;4.97;;;;;;;;;;5120112;27;20224;-73
2021/12/03 09:49:31;;;;;;;9.47;4.83;;;;;;;;;;5120655;27;20231;-74
2021/12/03 09:52:09;;;;;;;8.87;4.83;;;;;;;;;;5122890;27;20204;-73
2021/12/03 09:54:40;;;;;;;10.57;4.67;;;;;;;;;;5120539;27;20689;-74
2021/12/03 09:57:10;;;;;;;10.37;4.30;;;;;;;;;;5120527;27;20772;-73
2021/12/03 10:00:03;;;;;;;9.13;3.93;;;;;;;;;;5121438;27;20827;-73
2021/12/03 10:02:40;;;;;;;10.40;5.00;;;;;;;;;;5118775;27;20231;-73
2021/12/03 10:13:21;;;;;;;11.57;4.30;;;;;;;;;;5083235;27;20215;-73
2021/12/03 10:15:58;;;;;;;10.23;4.13;;;;;;;;;;5122504;27;20228;-73
2021/12/03 10:18:38;;;;;;;8.67;4.17;;;;;;;;;;5119170;27;20300;-73
2021/12/03 10:21:12;;;;;;;11.47;4.97;;;;;;;;;;5121082;27;20311;-73
2021/12/03 10:24:19;;;;;;;11.43;5.20;;;;;;;;;;5121925;27;20257;-73
2021/12/03 10:27:18;;;;;;;11.67;4.67;;;;;;;;;;5117562;27;20212;-74
2021/12/03 10:29:57;;;;;;;15.67;4.63;;;;;;;;;;5121714;27;20232;-75
2021/12/03 10:35:31;;;;;;;13.33;4.07;;;;;;;;;;5110920;27;20284;-75
2021/12/03 10:38:08;;;;;;;9.40;3.67;;;;;;;;;;5120676;27;20240;-75
2021/12/03 10:40:51;;;;;;;9.80;3.57;;;;;;;;;;5120596;27;20224;-75
2021/12/03 10:43:35;;;;;;;10.30;4.40;;;;;;;;;;5120803;27;20558;-75
2021/12/03 10:46:15;;;;;;;13.37;3.73;;;;;;;;;;5121014;27;20214;-75
2021/12/03 10:48:50;;;;;;;10.57;4.80;;;;;;;;;;5119516;27;20300;-75
2021/12/03 10:51:35;;;;;;;7.43;3.23;;;;;;;;;;5121431;27;20213;-75
2021/12/03 10:54:07;;;;;;;11.97;4.17;;;;;;;;;;5120406;27;20713;-75
2021/12/03 10:56:47;;;;;;;6.70;3.67;;;;;;;;;;5121700;27;20302;-75
2021/12/03 10:59:39;;;;;;;11.47;4.00;;;;;;;;;;5119764;27;20277;-75
2021/12/03 11:08:14;;;;;;;5.60;3.20;;;;;;;;;;5118723;27;20242;-75
2021/12/03 11:36:22;;;;;;;8.37;4.10;;;;;;;;;;5085295;28;21090;-75
2021/12/03 11:45:20;;;;;;;12.20;5.03;;;;;;;;;;5053635;28;20209;-74
2021/12/03 11:59:07;;;;;;;8.40;4.00;;;;;;;;;;5085852;28;20266;-76
2021/12/03 12:45:01;;;;;;;7.83;2.77;;;;;;;;;;5056265;28;20209;-75
2021/12/03 13:12:56;;;;;;;5.37;3.00;;;;;;;;;;5045554;28;20213;-74
2021/12/03 14:00:16;;;;;;;8.67;3.80;;;;;;;;;;5068077;28;20570;-73
2021/12/03 14:36:37;;;;;;;3.87;3.27;;;;;;;;;;5062265;28;20218;-74
2021/12/03 14:39:25;;;;;;;7.03;4.27;;;;;;;;;;5068401;28;20221;-74
2021/12/03 14:42:08;;;;;;;12.20;3.87;;;;;;;;;;5066646;28;20666;-74
2021/12/03 14:44:56;;;;;;;5.90;5.17;;;;;;;;;;5069509;28;20448;-74
2021/12/03 14:47:54;;;;;;;6.13;5.17;;;;;;;;;;5068277;28;20294;-73
2021/12/03 14:50:58;;;;;;;6.27;4.67;;;;;;;;;;5066653;28;20261;-74
2021/12/03 14:56:21;;;;;;;5.07;4.57;;;;;;;;;;5067065;28;20232;-74
2021/12/03 14:59:05;;;;;;;6.90;5.40;;;;;;;;;;5067448;28;20239;-74
2021/12/03 15:01:40;;;;;;;4.70;3.77;;;;;;;;;;5068919;28;20228;-74
2021/12/03 15:04:36;;;;;;;7.00;6.40;;;;;;;;;;5069029;28;20960;-74
2021/12/03 15:07:10;;;;;;;8.00;6.43;;;;;;;;;;5068384;28;20219;-74
2021/12/03 15:09:40;;;;;;;10.90;7.80;;;;;;;;;;5067229;28;20340;-74
2021/12/03 15:15:31;;;;;;;5.73;4.40;;;;;;;;;;5066056;28;20217;-73
2021/12/03 15:26:39;;;;;;;9.27;8.47;;;;;;;;;;5069678;28;20244;-74
2021/12/03 15:31:54;;;;;;;6.20;5.60;;;;;;;;;;5055140;28;20232;-74
2021/12/03 15:37:17;;;;;;;7.80;7.00;;;;;;;;;;5067915;28;20282;-74
2021/12/03 15:56:41;;;;;;;9.87;8.87;;;;;;;;;;5067338;28;20257;-73
2021/12/03 16:04:40;;;;;;;10.10;8.20;;;;;;;;;;5066623;28;20340;-73
2021/12/03 16:07:22;;;;;;;7.73;7.03;;;;;;;;;;5067545;28;20733;-74
2021/12/03 16:10:05;;;;;;;10.60;9.53;;;;;;;;;;5067794;28;20251;-74
2021/12/03 16:12:46;;;;;;;9.20;8.40;;;;;;;;;;5068918;28;20229;-74
2021/12/03 16:15:27;;;;;;;9.97;8.97;;;;;;;;;;5069021;28;20209;-73
2021/12/03 16:18:19;;;;;;;13.10;11.90;;;;;;;;;;5073365;28;20206;-74
2021/12/03 16:23:49;;;;;;;11.37;10.37;;;;;;;;;;5055147;28;20311;-74
2021/12/03 16:49:16;;;;;;;16.43;14.80;;;;;;;;;;5070294;28;20667;-73
2021/12/03 16:51:31;;;;;;;14.73;13.30;;;;;;;;;;5071747;28;20599;-74
2021/12/03 16:54:05;;;;;;;16.93;15.40;;;;;;;;;;5072855;28;20210;-74
2021/12/03 16:56:31;;;;;;;16.33;14.37;;;;;;;;;;5069140;28;20419;-74
2021/12/03 16:58:59;;;;;;;16.40;14.87;;;;;;;;;;5071080;28;20679;-74
2021/12/03 17:01:32;;;;;;;18.00;16.30;;;;;;;;;;5070451;28;20233;-74
2021/12/03 17:04:09;;;;;;;16.03;14.40;;;;;;;;;;5070266;28;20202;-74
2021/12/03 17:07:21;;;;;;;15.07;13.57;;;;;;;;;;5071707;28;20255;-75
2021/12/03 17:10:04;;;;;;;17.10;15.47;;;;;;;;;;5069475;28;20252;-74
2021/12/03 17:12:40;;;;;;;19.87;18.00;;;;;;;;;;5071001;28;20209;-74
2021/12/03 17:15:20;;;;;;;19.03;17.13;;;;;;;;;;5070505;28;20791;-74
2021/12/03 17:48:28;;;;;;;24.27;21.90;;;;;;;;;;5070219;28;20232;-75
2021/12/03 17:56:30;;;;;;;17.23;15.40;;;;;;;;;;5058101;28;20232;-75
2021/12/03 17:59:03;;;;;;;18.77;16.60;;;;;;;;;;5068077;28;20248;-75
2021/12/03 18:01:33;;;;;;;20.77;17.17;;;;;;;;;;5068625;28;20668;-75
2021/12/03 18:04:07;;;;;;;25.07;22.67;;;;;;;;;;5069767;28;20220;-76
2021/12/03 18:09:42;;;;;;;21.10;16.27;;;;;;;;;;5068421;28;20584;-76
2021/12/03 18:12:46;;;;;;;21.93;19.73;;;;;;;;;;5071157;28;21217;-78
2021/12/03 18:15:33;;;;;;;20.37;18.17;;;;;;;;;;5069943;28;20764;-77
2021/12/03 18:51:19;;;;;;;22.80;19.60;;;;;;;;;;5025933;28;20321;-76
2021/12/03 18:54:15;;;;;;;27.87;24.73;;;;;;;;;;5059219;28;20820;-76
2021/12/03 18:56:45;;;;;;;27.83;24.83;;;;;;;;;;5069021;28;20224;-76
2021/12/03 18:59:13;;;;;;;23.50;20.37;;;;;;;;;;5068004;28;20214;-77
2021/12/03 19:01:40;;;;;;;29.27;25.67;;;;;;;;;;5069264;28;20256;-77
2021/12/03 19:04:17;;;;;;;25.10;20.23;;;;;;;;;;5068006;28;20239;-76
2021/12/03 19:06:47;;;;;;;27.70;24.53;;;;;;;;;;5070398;28;20200;-77
2021/12/03 19:09:16;;;;;;;24.13;20.07;;;;;;;;;;5068134;28;20370;-77
2021/12/03 19:11:50;;;;;;;26.07;22.10;;;;;;;;;;5068761;28;20205;-76
2021/12/03 19:14:19;;;;;;;21.93;18.43;;;;;;;;;;5068164;28;20212;-76
2021/12/03 19:16:46;;;;;;;25.70;22.70;;;;;;;;;;5066887;28;20240;-76
2021/12/03 19:19:15;;;;;;;26.27;21.60;;;;;;;;;;5068299;28;20612;-76
2021/12/03 19:21:44;;;;;;;28.83;24.10;;;;;;;;;;5068504;28;20615;-76
2021/12/03 19:24:12;;;;;;;25.70;19.57;;;;;;;;;;5069155;28;20962;-76
2021/12/03 19:26:43;;;;;;;27.20;22.57;;;;;;;;;;5067255;28;20577;-76
2021/12/03 19:29:11;;;;;;;22.60;18.73;;;;;;;;;;5067019;28;20237;-76
2021/12/03 19:31:40;;;;;;;26.83;21.40;;;;;;;;;;5067089;28;20222;-76
2021/12/03 19:34:06;;;;;;;24.50;20.73;;;;;;;;;;5068018;28;20221;-76
2021/12/03 19:36:38;;;;;;;28.60;23.87;;;;;;;;;;5067542;28;20779;-76
2021/12/03 19:39:06;;;;;;;29.43;24.50;;;;;;;;;;5069263;28;20279;-75
2021/12/03 19:41:37;;;;;;;25.17;20.87;;;;;;;;;;5066777;28;20232;-76
2021/12/03 19:44:07;;;;;;;25.07;20.33;;;;;;;;;;5067044;28;20230;-76
2021/12/03 19:46:36;;;;;;;31.73;26.37;;;;;;;;;;5066695;28;20229;-76
2021/12/03 19:49:09;;;;;;;28.20;24.67;;;;;;;;;;5067623;28;20357;-75
2021/12/03 19:51:42;;;;;;;31.77;26.07;;;;;;;;;;5069899;28;20308;-77
2021/12/03 19:54:09;;;;;;;33.87;25.47;;;;;;;;;;5070475;28;20221;-75
2021/12/03 19:56:36;;;;;;;30.07;23.40;;;;;;;;;;5071103;28;20234;-75
2021/12/03 19:59:04;;;;;;;32.13;26.80;;;;;;;;;;5071099;28;20661;-75
2021/12/03 20:01:33;;;;;;;30.20;24.40;;;;;;;;;;5071684;28;20278;-76
2021/12/03 20:03:59;;;;;;;32.03;22.37;;;;;;;;;;5072361;28;20813;-74
2021/12/03 20:06:27;;;;;;;27.57;22.87;;;;;;;;;;5070226;28;20209;-74
2021/12/03 20:08:56;;;;;;;30.67;23.70;;;;;;;;;;5071704;28;20201;-74
2021/12/03 20:11:26;;;;;;;28.03;19.93;;;;;;;;;;5068732;28;20237;-75
2021/12/03 20:13:56;;;;;;;27.60;22.60;;;;;;;;;;5071874;28;20241;-75
2021/12/03 20:16:27;;;;;;;30.13;23.70;;;;;;;;;;5071328;28;20221;-75
2021/12/03 20:18:55;;;;;;;26.97;19.40;;;;;;;;;;5073483;28;20209;-75
2021/12/03 20:21:24;;;;;;;24.70;19.83;;;;;;;;;;5072014;28;20790;-75
2021/12/03 20:24:03;;;;;;;27.97;22.67;;;;;;;;;;5070400;28;20253;-76
2021/12/03 20:26:33;;;;;;;27.33;22.63;;;;;;;;;;5070603;28;20217;-75
2021/12/03 20:29:01;;;;;;;29.00;20.00;;;;;;;;;;5071330;28;20243;-75
2021/12/03 20:31:32;;;;;;;25.17;19.87;;;;;;;;;;5070050;28;20225;-70
2021/12/03 20:36:45;;;;;;;25.20;18.83;;;;;;;;;;5071164;28;20212;-69